Stations météo

Publicité
Threave, Grande-Bretagne (99090): Température de l'air & dewpoint: 14.09.2019 04:00:00 - 20.09.2019 04:00:00 (BST)Threave, Grande-Bretagne (99090): Température de l'air -20cm & Température de l'air -100cm: 14.09.2019 04:00:00 - 20.09.2019 04:00:00 (BST)Threave, Grande-Bretagne (99090): Quantités de précipitations: 14.09.2019 04:00:00 - 20.09.2019 04:00:00 (BST)
Date & Time tt [°C] td [°C] tt -20cm [°C] tt -100cm [°C] rr [mm]
20.09.2019 04:00:00 - - - - -
20.09.2019 03:00:00 - - - - -
20.09.2019 02:00:00 - - - - -
20.09.2019 01:00:00 - - - - -
20.09.2019 00:00:00 - - - - -
19.09.2019 23:00:00 - - - - -
19.09.2019 22:00:00 - - - - -
19.09.2019 21:00:00 - - - - -
19.09.2019 20:00:00 12,4 10,4 - - 0,0
19.09.2019 19:00:00 14,3 11,3 - - 0,0
19.09.2019 18:00:00 15,8 11,1 - - 0,0
19.09.2019 17:00:00 17,8 11,3 - - 0,0
19.09.2019 16:00:00 17,5 10,6 - - 0,0
19.09.2019 15:00:00 17,3 12,7 - - 0,0
19.09.2019 14:00:00 17,1 12,1 - - 0,0
19.09.2019 13:00:00 17,1 12,4 - - 0,0
19.09.2019 12:00:00 16,6 12,2 - - 0,0
19.09.2019 11:00:00 14,1 13,9 - - 0,0
19.09.2019 10:00:00 10,2 10,1 13,9 13,7 0,0
19.09.2019 09:00:00 7,7 7,6 - - 0,0
19.09.2019 08:00:00 6,3 6,0 - - 0,0
19.09.2019 07:00:00 7,0 6,7 - - 0,0
19.09.2019 06:00:00 6,8 6,5 - - 0,0
19.09.2019 05:00:00 7,1 6,8 - - 0,0
19.09.2019 04:00:00 7,0 6,6 - - 0,0
19.09.2019 03:00:00 7,6 7,2 - - 0,0
19.09.2019 02:00:00 8,0 7,6 - - 0,0
19.09.2019 01:00:00 8,4 8,0 - - 0,0
19.09.2019 00:00:00 9,2 8,7 - - 0,0
18.09.2019 23:00:00 9,7 9,2 - - 0,0
18.09.2019 22:00:00 10,3 9,4 - - 0,0
18.09.2019 21:00:00 11,3 9,5 - - 0,0
18.09.2019 20:00:00 - - - - 0,0
18.09.2019 19:00:00 - - - - 0,0
18.09.2019 18:00:00 - - - - 0,0
18.09.2019 17:00:00 - - - - 0,0
18.09.2019 16:00:00 - - - - 0,0
18.09.2019 15:00:00 - - - - 0,0
18.09.2019 14:00:00 15,6 11,1 - - 0,0
18.09.2019 13:00:00 15,0 10,4 - - 0,0
18.09.2019 12:00:00 14,0 9,0 - - 0,0
18.09.2019 11:00:00 12,5 9,1 - - 0,0
18.09.2019 10:00:00 11,2 8,4 14,0 13,7 0,0
18.09.2019 09:00:00 9,1 7,9 - - 0,0
18.09.2019 08:00:00 7,7 7,1 - - 0,0
18.09.2019 07:00:00 7,4 6,3 - - 0,0
18.09.2019 06:00:00 8,0 6,4 - - 0,0
18.09.2019 05:00:00 8,3 6,5 - - 0,0
18.09.2019 04:00:00 8,1 6,1 - - 0,0
18.09.2019 03:00:00 7,8 6,0 - - 0,0
18.09.2019 02:00:00 7,6 6,0 - - 0,0
18.09.2019 01:00:00 7,2 5,8 - - 0,0
18.09.2019 00:00:00 6,7 4,4 - - 0,0
17.09.2019 23:00:00 6,7 5,5 - - 0,0
17.09.2019 22:00:00 6,9 5,1 - - 0,0
17.09.2019 21:00:00 8,5 5,5 - - 0,0
17.09.2019 20:00:00 10,7 4,7 - - 0,0
17.09.2019 19:00:00 12,6 5,2 - - 0,0
17.09.2019 18:00:00 14,4 4,0 - - 0,0
17.09.2019 17:00:00 15,3 4,6 - - 0,0
17.09.2019 16:00:00 16,1 5,7 - - 0,0
17.09.2019 15:00:00 16,0 5,0 - - 0,0
17.09.2019 14:00:00 16,4 7,2 - - 0,0
17.09.2019 13:00:00 15,4 6,3 - - 0,0
17.09.2019 12:00:00 15,1 8,3 - - 0,0
17.09.2019 11:00:00 13,0 8,0 - - 0,0
17.09.2019 10:00:00 11,7 7,8 14,0 13,7 0,0
17.09.2019 09:00:00 10,1 8,4 - - 0,0
17.09.2019 08:00:00 8,2 7,3 - - 0,0
17.09.2019 07:00:00 6,8 6,1 - - 0,0
17.09.2019 06:00:00 7,1 6,3 - - 0,0
17.09.2019 05:00:00 7,8 6,7 - - 0,0
17.09.2019 04:00:00 7,6 6,9 - - 0,0
17.09.2019 03:00:00 7,6 6,4 - - 0,0
17.09.2019 02:00:00 8,4 6,7 - - 0,0
17.09.2019 01:00:00 7,9 6,6 - - 0,0
17.09.2019 00:00:00 8,3 6,0 - - 0,0
16.09.2019 23:00:00 10,0 7,1 - - 0,0
16.09.2019 22:00:00 10,3 7,4 - - 0,0
16.09.2019 21:00:00 10,9 7,1 - - 0,0
16.09.2019 20:00:00 12,1 7,8 - - 0,0
16.09.2019 19:00:00 12,6 6,7 - - 0,0
16.09.2019 18:00:00 13,9 6,7 - - 0,0
16.09.2019 17:00:00 13,7 7,3 - - 0,0
16.09.2019 16:00:00 15,3 7,9 - - 0,0
16.09.2019 15:00:00 15,8 9,8 - - 0,0
16.09.2019 14:00:00 15,6 7,4 - - 0,0
16.09.2019 13:00:00 15,0 8,7 - - 0,0
16.09.2019 12:00:00 - - - - 0,0
16.09.2019 11:00:00 - - - - 0,0
16.09.2019 10:00:00 - - - - 0,0
16.09.2019 09:00:00 - - - - 0,0
16.09.2019 08:00:00 - - - - 0,0
16.09.2019 07:00:00 - - - - 0,0
16.09.2019 06:00:00 - - - - 0,0
16.09.2019 05:00:00 - - - - 0,0
16.09.2019 04:00:00 - - - - 0,0
16.09.2019 03:00:00 - - - - 0,0
16.09.2019 02:00:00 - - - - 0,0
16.09.2019 01:00:00 - - - - 0,0
16.09.2019 00:00:00 - - - - -
15.09.2019 23:00:00 - - - - 0,0
15.09.2019 22:00:00 - - - - 0,0
15.09.2019 21:00:00 - - - - 0,0
15.09.2019 20:00:00 - - - - 0,0
15.09.2019 19:00:00 - - - - 0,0
15.09.2019 18:00:00 - - - - -
15.09.2019 17:00:00 - - - - -
15.09.2019 16:00:00 - - - - 0,0
15.09.2019 15:00:00 - - - - 0,0
15.09.2019 14:00:00 - - - - -
15.09.2019 13:00:00 14,3 8,1 - - 0,0
15.09.2019 12:00:00 13,5 7,2 - - 0,0
15.09.2019 11:00:00 13,5 8,6 - - 0,0
15.09.2019 10:00:00 12,6 9,1 14,4 14,0 0,0
15.09.2019 09:00:00 11,9 8,0 - - 0,0
15.09.2019 08:00:00 11,8 7,4 - - 0,0
15.09.2019 07:00:00 11,4 8,5 - - 0,0
15.09.2019 06:00:00 12,0 9,5 - - 0,0
15.09.2019 05:00:00 12,6 10,4 - - 0,0
15.09.2019 04:00:00 12,2 10,5 - - 0,0
15.09.2019 03:00:00 12,6 10,7 - - 0,0
15.09.2019 02:00:00 13,1 11,5 - - 0,0
15.09.2019 01:00:00 14,9 13,2 - - 0,0
15.09.2019 00:00:00 15,3 12,4 - - 0,0
14.09.2019 23:00:00 15,6 12,0 - - 0,0
14.09.2019 22:00:00 15,7 11,7 - - 0,0
14.09.2019 21:00:00 15,2 11,8 - - 0,0
14.09.2019 20:00:00 15,2 10,9 - - 0,0
14.09.2019 19:00:00 14,9 10,6 - - 0,0
14.09.2019 18:00:00 15,4 9,8 - - 0,0
14.09.2019 17:00:00 15,8 9,6 - - 0,0
14.09.2019 16:00:00 16,3 9,2 - - 0,0
14.09.2019 15:00:00 15,8 9,4 - - 0,0
14.09.2019 14:00:00 16,5 9,6 - - 0,0
14.09.2019 13:00:00 15,6 10,0 - - 0,0
14.09.2019 12:00:00 14,5 10,1 - - 0,0
14.09.2019 11:00:00 14,5 10,7 - - 0,0
14.09.2019 10:00:00 13,7 9,8 14,0 14,0 0,0
14.09.2019 09:00:00 12,8 10,6 - - 0,0
14.09.2019 08:00:00 10,6 10,3 - - 0,0
14.09.2019 07:00:00 8,8 8,6 - - 0,0
14.09.2019 06:00:00 7,2 7,0 - - 0,0
14.09.2019 05:00:00 5,7 5,3 - - 0,0
14.09.2019 04:00:00 6,5 6,2 - - 0,0

tt = Température de l'air
td = dewpoint
tt -20cm = Température de l'air -20cm
tt -100cm = Température de l'air -100cm
rr = Quantités de précipitations

stations d'obs. à proximité